Time;durP1;ratioP1;P1;durP2;ratioP2;P2;SDS_P1;SDS_P2;PMS_P1;PMS_P2;Temp;Humidity;BMP_temperature;BMP_pressure;BME280_temperature;BME280_humidity;BME280_pressure;Samples;Min_cycle;Max_cycle;Signal;HPM_P1;HPM_P2
2021/04/09 00:02:24;;;;;;;12.48;7.00;;;3.90;99.90;;;;;;5016831;28;20243;-87
2021/04/09 00:04:50;;;;;;;10.80;7.60;;;4.10;99.90;;;;;;5017935;28;20207;-86
2021/04/09 00:07:17;;;;;;;12.70;7.18;;;4.20;99.90;;;;;;5025190;28;20678;-87
2021/04/09 00:09:44;;;;;;;8.65;6.25;;;4.20;99.90;;;;;;5038541;28;20210;-87
2021/04/09 00:23:04;;;;;;;;;;;;;;;;;;;;;
2021/04/09 00:26:09;;;;;;;12.43;7.25;;;4.10;99.90;;;;;;5003776;28;20291;-86
2021/04/09 00:32:10;;;;;;;15.02;7.60;;;4.30;99.90;;;;;;4988980;28;20823;-88
2021/04/09 00:34:55;;;;;;;12.15;8.25;;;4.20;99.90;;;;;;5017868;28;20232;-89
2021/04/09 00:37:38;;;;;;;14.25;7.13;;;4.20;99.90;;;;;;5011963;28;20240;-87
2021/04/09 00:40:20;;;;;;;13.45;7.70;;;4.10;99.90;;;;;;5010933;28;20209;-87
2021/04/09 00:43:11;;;;;;;;;;;;;;;;;;;;;
2021/04/09 00:45:39;;;;;;;13.85;7.43;;;4.20;99.90;;;;;;5023488;28;20279;-88
2021/04/09 00:48:16;;;;;;;18.17;8.95;;;4.10;99.90;;;;;;5017249;28;20224;-89
2021/04/09 00:57:45;;;;;;;15.70;7.85;;;3.90;99.90;;;;;;5036553;28;20744;-88
2021/04/09 01:00:38;;;;;;;12.82;8.13;;;3.80;99.90;;;;;;5038403;28;20205;-87
2021/04/09 01:03:27;;;;;;;14.32;7.75;;;3.80;99.90;;;;;;5019916;28;20295;-87
2021/04/09 01:09:25;;;;;;;9.98;6.47;;;3.90;99.90;;;;;;4993893;28;20213;-87
2021/04/09 01:15:49;;;;;;;9.43;6.38;;;3.80;99.90;;;;;;5040733;28;20246;-87
2021/04/09 01:52:29;;;;;;;9.07;6.43;;;3.40;99.90;;;;;;4972316;28;20424;-88
2021/04/09 02:02:31;;;;;;;;;;;;;;;;;;;;;
2021/04/09 02:05:12;;;;;;;10.15;6.57;;;3.30;99.90;;;;;;4974332;28;20654;-87
2021/04/09 02:08:29;;;;;;;10.25;6.25;;;3.30;99.90;;;;;;5025948;28;20298;-88
2021/04/09 02:11:13;;;;;;;11.50;6.47;;;3.40;99.90;;;;;;5025647;28;20218;-88
2021/04/09 02:14:23;;;;;;;10.85;6.38;;;3.40;99.90;;;;;;5033980;28;20222;-87
2021/04/09 02:20:39;;;;;;;9.45;5.72;;;3.40;99.90;;;;;;4968997;28;20201;-88
2021/04/09 02:24:01;;;;;;;10.65;6.65;;;3.40;99.90;;;;;;4928268;28;20380;-86
2021/04/09 02:29:56;;;;;;;12.35;6.25;;;3.40;99.90;;;;;;5020113;28;20206;-87
2021/04/09 02:32:50;;;;;;;9.77;5.47;;;3.20;99.90;;;;;;5030085;28;20218;-87
2021/04/09 02:35:41;;;;;;;7.15;4.90;;;3.40;99.90;;;;;;5028877;28;20218;-87
2021/04/09 02:38:21;;;;;;;10.07;7.00;;;3.50;99.90;;;;;;5037670;28;20227;-88
2021/04/09 02:40:53;;;;;;;21.58;6.13;;;3.20;99.90;;;;;;5022683;28;20822;-89
2021/04/09 02:43:20;;;;;;;9.40;5.57;;;3.30;99.90;;;;;;5052960;22;20223;-80
2021/04/09 02:45:47;;;;;;;11.85;6.80;;;3.40;99.90;;;;;;5035191;28;20275;-80
2021/04/09 02:48:14;;;;;;;8.93;6.47;;;3.40;99.90;;;;;;5032941;28;20238;-80
2021/04/09 02:50:44;;;;;;;13.80;6.18;;;3.40;99.90;;;;;;5032022;28;20297;-80
2021/04/09 02:53:15;;;;;;;11.57;5.95;;;3.30;99.90;;;;;;5045537;28;20266;-80
2021/04/09 02:55:44;;;;;;;12.80;5.88;;;3.20;99.90;;;;;;5038894;28;20226;-80
2021/04/09 02:58:12;;;;;;;10.68;5.63;;;3.50;99.90;;;;;;5038972;28;20298;-80
2021/04/09 03:00:44;;;;;;;8.10;4.93;;;3.20;99.90;;;;;;5039131;28;20227;-80
2021/04/09 03:03:11;;;;;;;9.27;5.60;;;3.50;99.90;;;;;;5038052;28;20231;-80
2021/04/09 03:05:39;;;;;;;10.27;5.22;;;3.50;99.90;;;;;;5023411;28;20881;-80
2021/04/09 03:08:06;;;;;;;8.82;5.07;;;3.40;99.90;;;;;;5037282;28;20213;-80
2021/04/09 03:10:32;;;;;;;8.93;5.10;;;3.20;99.90;;;;;;5034195;28;20234;-80
2021/04/09 03:12:59;;;;;;;10.02;6.13;;;3.30;99.90;;;;;;5033020;28;20350;-80
2021/04/09 03:15:28;;;;;;;9.27;6.30;;;3.40;99.90;;;;;;5034442;28;20373;-80
2021/04/09 03:17:58;;;;;;;9.20;5.40;;;3.50;99.90;;;;;;5031078;28;20239;-80
2021/04/09 03:20:25;;;;;;;9.35;5.40;;;3.40;99.90;;;;;;5022335;28;20264;-80
2021/04/09 03:22:52;;;;;;;9.25;5.32;;;3.40;99.90;;;;;;5018441;28;20310;-80
2021/04/09 03:25:18;;;;;;;9.02;5.55;;;3.50;99.90;;;;;;5033449;28;20829;-80
2021/04/09 03:27:45;;;;;;;8.05;5.60;;;3.60;99.90;;;;;;5038705;28;20207;-80
2021/04/09 03:30:13;;;;;;;10.13;5.20;;;3.60;99.90;;;;;;5032494;28;20235;-80
2021/04/09 03:32:39;;;;;;;8.35;4.80;;;3.60;99.90;;;;;;5039238;28;20227;-80
2021/04/09 03:35:08;;;;;;;16.23;5.75;;;3.40;99.90;;;;;;5035906;28;20251;-80
2021/04/09 03:37:34;;;;;;;12.38;5.10;;;3.20;99.90;;;;;;5030675;28;20298;-80
2021/04/09 03:40:01;;;;;;;9.90;6.13;;;3.20;99.90;;;;;;5036122;28;20215;-80
2021/04/09 03:42:27;;;;;;;10.95;5.80;;;3.40;99.90;;;;;;5036104;28;20243;-80
2021/04/09 03:44:54;;;;;;;8.30;5.30;;;3.20;99.90;;;;;;5036181;28;20274;-80
2021/04/09 03:47:20;;;;;;;9.63;5.18;;;3.20;99.90;;;;;;5036419;28;20211;-80
2021/04/09 03:49:46;;;;;;;9.30;5.82;;;3.20;99.90;;;;;;5035162;28;20302;-80
2021/04/09 03:52:14;;;;;;;9.38;5.97;;;3.10;99.90;;;;;;5037482;28;20669;-80
2021/04/09 03:54:40;;;;;;;9.07;5.03;;;3.40;99.90;;;;;;5034797;28;20314;-79
2021/04/09 03:57:06;;;;;;;11.02;5.45;;;3.20;99.90;;;;;;5035092;28;20291;-80
2021/04/09 03:59:33;;;;;;;12.45;5.57;;;3.30;99.90;;;;;;5034614;28;20213;-80
2021/04/09 04:02:00;;;;;;;7.65;4.63;;;3.20;99.90;;;;;;5028431;28;20627;-79
2021/04/09 04:04:27;;;;;;;8.35;5.60;;;3.40;99.90;;;;;;5019552;28;20245;-79
2021/04/09 04:06:53;;;;;;;9.38;4.90;;;3.30;99.90;;;;;;5014799;28;20296;-80
2021/04/09 04:09:21;;;;;;;7.57;4.55;;;3.30;99.90;;;;;;5029977;28;20303;-80
2021/04/09 04:11:47;;;;;;;8.38;5.38;;;3.20;99.90;;;;;;5018431;28;20204;-80
2021/04/09 04:14:13;;;;;;;7.93;5.43;;;3.40;99.90;;;;;;5030546;28;20223;-79
2021/04/09 04:16:40;;;;;;;8.60;4.88;;;3.20;99.90;;;;;;5024633;28;20211;-80
2021/04/09 04:19:06;;;;;;;13.68;6.55;;;3.30;99.90;;;;;;5033916;28;20719;-80
2021/04/09 04:21:32;;;;;;;8.07;5.18;;;3.30;99.90;;;;;;5034684;28;20219;-79
2021/04/09 04:23:59;;;;;;;10.10;5.50;;;3.40;99.90;;;;;;5034619;28;20258;-80
2021/04/09 04:26:26;;;;;;;9.57;5.55;;;3.50;99.90;;;;;;5036312;28;20295;-79
2021/04/09 04:28:53;;;;;;;16.55;6.38;;;3.40;99.90;;;;;;5020063;28;20211;-79
2021/04/09 04:31:19;;;;;;;10.18;6.07;;;3.20;99.90;;;;;;5031189;28;20275;-79
2021/04/09 04:33:45;;;;;;;9.18;5.53;;;3.30;99.90;;;;;;5036242;28;20290;-80
2021/04/09 04:36:12;;;;;;;9.05;5.70;;;3.30;99.90;;;;;;5037427;28;20879;-80
2021/04/09 04:38:38;;;;;;;9.65;5.85;;;3.30;99.90;;;;;;5037438;28;20276;-80
2021/04/09 04:41:04;;;;;;;10.43;5.13;;;3.40;99.90;;;;;;5035522;28;20223;-80
2021/04/09 04:43:32;;;;;;;13.05;6.32;;;3.30;99.90;;;;;;5028603;28;20227;-80
2021/04/09 04:45:58;;;;;;;9.57;5.47;;;3.20;99.90;;;;;;5015381;28;20328;-80
2021/04/09 04:48:27;;;;;;;11.73;5.85;;;3.10;99.90;;;;;;5018106;28;20207;-80
2021/04/09 04:50:54;;;;;;;16.10;5.90;;;3.30;99.90;;;;;;5039329;28;20310;-80
2021/04/09 04:53:21;;;;;;;11.85;6.75;;;3.10;99.90;;;;;;5038721;28;20316;-80
2021/04/09 04:55:47;;;;;;;11.15;5.80;;;3.30;99.90;;;;;;5034720;28;20220;-80
2021/04/09 04:58:13;;;;;;;10.82;5.78;;;3.40;99.90;;;;;;5030227;28;20294;-80
2021/04/09 05:00:40;;;;;;;8.20;5.88;;;3.30;99.90;;;;;;5032774;28;20203;-80
2021/04/09 05:03:07;;;;;;;9.10;6.05;;;3.30;99.90;;;;;;5031967;28;20229;-80
2021/04/09 05:05:33;;;;;;;8.45;5.68;;;3.50;99.90;;;;;;5032848;28;20275;-79
2021/04/09 05:07:59;;;;;;;12.38;5.30;;;3.20;99.90;;;;;;5030859;28;20214;-79
2021/04/09 05:10:26;;;;;;;9.65;5.43;;;3.50;99.90;;;;;;5032944;28;20679;-79
2021/04/09 05:12:52;;;;;;;8.52;5.80;;;3.50;99.90;;;;;;5031695;28;20294;-80
2021/04/09 05:15:18;;;;;;;9.63;5.32;;;3.60;99.90;;;;;;5031758;28;20230;-80
2021/04/09 05:17:46;;;;;;;8.40;5.10;;;3.70;99.90;;;;;;5033499;28;20318;-80
2021/04/09 05:20:13;;;;;;;10.73;6.75;;;3.80;99.90;;;;;;5022105;28;20739;-79
2021/04/09 05:22:39;;;;;;;9.00;5.70;;;3.50;99.90;;;;;;5029436;28;20292;-79
2021/04/09 05:25:07;;;;;;;9.60;5.82;;;3.80;99.90;;;;;;5030408;28;20206;-79
2021/04/09 05:27:34;;;;;;;13.93;7.03;;;3.50;99.90;;;;;;5035651;28;20231;-79
2021/04/09 05:30:01;;;;;;;9.35;6.15;;;3.60;99.90;;;;;;5040154;28;20199;-80
2021/04/09 05:32:27;;;;;;;10.30;7.05;;;3.90;99.90;;;;;;5040361;28;20290;-80
2021/04/09 05:34:54;;;;;;;12.13;6.63;;;3.70;99.90;;;;;;5034667;28;20372;-80
2021/04/09 05:37:21;;;;;;;14.50;7.30;;;4.00;99.90;;;;;;5033116;28;20283;-81
2021/04/09 05:39:47;;;;;;;10.35;6.38;;;3.90;99.90;;;;;;5034082;28;20230;-80
2021/04/09 05:42:14;;;;;;;10.52;6.70;;;3.80;99.90;;;;;;5036414;28;20294;-81
2021/04/09 05:44:41;;;;;;;12.98;6.68;;;4.00;99.90;;;;;;5040220;28;20210;-80
2021/04/09 05:47:08;;;;;;;11.65;7.50;;;4.20;99.90;;;;;;5040178;28;20409;-80
2021/04/09 05:49:35;;;;;;;10.52;6.50;;;4.20;99.90;;;;;;5039503;28;20210;-80
2021/04/09 05:52:05;;;;;;;11.20;6.95;;;4.00;99.90;;;;;;5039088;28;20257;-80
2021/04/09 05:54:31;;;;;;;12.43;7.13;;;4.10;99.90;;;;;;5028006;28;20226;-80
2021/04/09 05:56:59;;;;;;;11.52;6.60;;;4.20;99.90;;;;;;5037639;28;20222;-80
2021/04/09 05:59:25;;;;;;;10.75;6.90;;;4.40;99.90;;;;;;5035076;28;20602;-81
2021/04/09 06:01:52;;;;;;;18.63;7.47;;;4.60;99.90;;;;;;5041272;28;20215;-80
2021/04/09 06:04:18;;;;;;;12.23;7.03;;;4.70;99.90;;;;;;5038948;28;20227;-80
2021/04/09 06:06:44;;;;;;;14.90;7.45;;;4.60;99.90;;;;;;5035613;28;20211;-80
2021/04/09 06:09:11;;;;;;;11.45;6.45;;;4.60;99.90;;;;;;5035952;28;20200;-80
2021/04/09 06:11:38;;;;;;;20.83;7.65;;;4.70;99.90;;;;;;5036622;28;20218;-80
2021/04/09 06:14:04;;;;;;;11.60;6.38;;;5.00;99.90;;;;;;5036195;28;20323;-80
2021/04/09 06:16:31;;;;;;;11.77;6.97;;;5.00;99.90;;;;;;5036453;28;20665;-80
2021/04/09 06:18:57;;;;;;;9.82;6.20;;;5.00;99.90;;;;;;5035323;28;20210;-80
2021/04/09 06:21:23;;;;;;;18.13;8.13;;;5.40;99.90;;;;;;5035868;28;20874;-81
2021/04/09 06:23:50;;;;;;;8.60;6.30;;;5.30;99.90;;;;;;5031463;28;20231;-80
2021/04/09 06:26:17;;;;;;;13.25;7.32;;;5.60;99.90;;;;;;5029961;28;20263;-80
2021/04/09 06:28:44;;;;;;;13.25;7.22;;;5.80;99.90;;;;;;5036550;28;20208;-80
2021/04/09 06:31:10;;;;;;;10.30;6.25;;;5.70;99.90;;;;;;5037838;28;20236;-80
2021/04/09 06:33:37;;;;;;;10.85;6.78;;;5.80;99.40;;;;;;5031852;28;20263;-80
2021/04/09 06:36:05;;;;;;;11.13;6.10;;;6.10;99.00;;;;;;5019453;28;20230;-80
2021/04/09 06:38:31;;;;;;;15.23;7.00;;;6.40;98.30;;;;;;5038198;28;20204;-80
2021/04/09 06:40:57;;;;;;;10.75;6.32;;;6.40;97.90;;;;;;5041197;28;20230;-80
2021/04/09 06:43:25;;;;;;;10.95;6.10;;;6.80;97.20;;;;;;5031983;28;20255;-80
2021/04/09 06:45:51;;;;;;;10.50;6.45;;;6.90;96.70;;;;;;5037215;28;20241;-79
2021/04/09 06:48:17;;;;;;;10.05;6.10;;;7.00;96.20;;;;;;5039963;28;20227;-79
2021/04/09 06:50:44;;;;;;;9.63;5.85;;;7.30;95.90;;;;;;5043528;28;20207;-79
2021/04/09 06:53:13;;;;;;;8.55;5.80;;;7.30;95.90;;;;;;5042816;28;20316;-79
2021/04/09 06:55:43;;;;;;;11.50;6.17;;;7.60;95.70;;;;;;5042003;28;20242;-79
2021/04/09 06:58:14;;;;;;;10.70;5.30;;;7.50;94.40;;;;;;5046823;28;20591;-81
2021/04/09 07:00:42;;;;;;;10.00;5.20;;;7.80;94.00;;;;;;5042159;28;20451;-80
2021/04/09 07:03:10;;;;;;;7.65;5.10;;;7.90;93.30;;;;;;5025112;28;20219;-78
2021/04/09 07:05:37;;;;;;;11.23;5.20;;;8.00;92.60;;;;;;5031482;28;20219;-81
2021/04/09 07:08:04;;;;;;;10.93;5.40;;;8.10;91.30;;;;;;5036919;28;20818;-79
2021/04/09 07:10:31;;;;;;;9.57;5.13;;;8.20;90.80;;;;;;5036723;28;20449;-80
2021/04/09 07:13:04;;;;;;;8.63;4.90;;;8.40;90.50;;;;;;5036067;28;20500;-79
2021/04/09 07:15:37;;;;;;;6.63;3.90;;;8.50;89.70;;;;;;5034519;28;20483;-80
2021/04/09 07:18:07;;;;;;;7.97;4.83;;;8.50;88.20;;;;;;5019256;28;20451;-79
2021/04/09 07:20:35;;;;;;;6.90;3.80;;;8.60;87.10;;;;;;5016260;28;20455;-79
2021/04/09 07:23:03;;;;;;;8.67;4.17;;;8.70;86.30;;;;;;5015471;28;21004;-79
2021/04/09 07:25:31;;;;;;;8.27;4.20;;;8.70;84.20;;;;;;5015736;28;20963;-79
2021/04/09 07:28:12;;;;;;;7.17;3.60;;;8.90;84.30;;;;;;5035062;28;20454;-79
2021/04/09 07:30:39;;;;;;;7.07;4.13;;;9.00;83.20;;;;;;5022218;28;20532;-79
2021/04/09 07:33:08;;;;;;;9.07;4.53;;;9.10;82.60;;;;;;5015405;28;20841;-79
2021/04/09 07:35:50;;;;;;;6.20;4.07;;;9.20;81.50;;;;;;5015648;28;20574;-79
2021/04/09 07:38:23;;;;;;;7.07;4.50;;;9.30;81.00;;;;;;5015135;28;20453;-79
2021/04/09 07:40:59;;;;;;;10.80;4.57;;;9.50;80.20;;;;;;5014744;28;20450;-79
2021/04/09 07:43:28;;;;;;;6.50;4.40;;;9.50;79.10;;;;;;5022108;28;20517;-79
2021/04/09 07:45:56;;;;;;;7.20;4.27;;;9.70;78.70;;;;;;5034779;28;20442;-79
2021/04/09 07:48:30;;;;;;;7.03;4.03;;;9.70;77.90;;;;;;5015460;28;20861;-79
2021/04/09 07:50:58;;;;;;;7.40;4.07;;;9.80;76.80;;;;;;5020607;28;20483;-79
2021/04/09 07:53:41;;;;;;;8.90;4.20;;;9.90;76.90;;;;;;5036545;28;20466;-80
2021/04/09 07:56:09;;;;;;;8.47;4.50;;;10.10;75.00;;;;;;5036092;28;20501;-79
2021/04/09 07:58:35;;;;;;;10.27;3.80;;;10.10;74.90;;;;;;5036518;28;20486;-80
2021/04/09 08:01:03;;;;;;;11.13;4.50;;;10.30;75.00;;;;;;5032306;28;20454;-80
2021/04/09 08:03:31;;;;;;;7.87;4.80;;;10.30;73.70;;;;;;5035876;28;20473;-79
2021/04/09 08:06:09;;;;;;;9.63;5.17;;;10.40;72.70;;;;;;5031865;28;20470;-80
2021/04/09 08:08:36;;;;;;;8.57;4.70;;;10.50;72.00;;;;;;5016814;28;20437;-79
2021/04/09 08:11:23;;;;;;;7.83;3.97;;;10.50;71.70;;;;;;5033479;28;20435;-79
2021/04/09 08:14:04;;;;;;;6.70;4.40;;;10.60;71.50;;;;;;5042554;28;20504;-79
2021/04/09 08:16:35;;;;;;;7.80;4.10;;;10.70;71.00;;;;;;5039765;28;20583;-79
2021/04/09 08:19:05;;;;;;;10.60;4.20;;;10.80;70.70;;;;;;5033696;28;21003;-78
2021/04/09 08:21:33;;;;;;;8.90;4.47;;;10.90;69.80;;;;;;5034770;28;20474;-80
2021/04/09 08:24:00;;;;;;;12.83;4.43;;;10.90;69.60;;;;;;5017303;28;20471;-80
2021/04/09 08:26:28;;;;;;;8.90;4.83;;;11.10;69.60;;;;;;5027843;28;20457;-81
2021/04/09 08:28:56;;;;;;;9.80;4.40;;;11.00;68.70;;;;;;5035995;28;20552;-81
2021/04/09 08:31:23;;;;;;;9.50;5.23;;;11.10;68.90;;;;;;5036571;28;20514;-81
2021/04/09 08:33:50;;;;;;;6.53;4.00;;;11.10;68.80;;;;;;5029341;28;20823;-80
2021/04/09 08:36:17;;;;;;;7.30;3.93;;;11.20;68.10;;;;;;5013383;28;20459;-81
2021/04/09 08:38:44;;;;;;;7.03;4.00;;;11.20;68.00;;;;;;5026274;28;20555;-81
2021/04/09 08:41:15;;;;;;;9.13;4.90;;;11.40;66.90;;;;;;5031562;28;20457;-82
2021/04/09 08:43:42;;;;;;;7.03;3.93;;;11.40;66.70;;;;;;5041405;22;20839;-90
2021/04/09 08:46:08;;;;;;;6.60;4.90;;;11.60;65.60;;;;;;5020537;28;20810;-85
2021/04/09 08:48:39;;;;;;;8.83;4.00;;;11.60;64.90;;;;;;5019125;28;20959;-88
2021/04/09 08:51:06;;;;;;;5.83;4.10;;;11.60;64.90;;;;;;5008045;28;20479;-89
2021/04/09 08:53:34;;;;;;;6.30;4.17;;;11.60;64.70;;;;;;5021277;28;20574;-88
2021/04/09 08:56:01;;;;;;;11.40;4.40;;;11.60;64.40;;;;;;5021019;28;20639;-87
2021/04/09 08:58:30;;;;;;;9.70;3.80;;;11.60;63.70;;;;;;5020752;28;20487;-89
2021/04/09 09:01:10;;;;;;;8.23;3.97;;;11.50;64.00;;;;;;5021824;28;20477;-86
2021/04/09 09:03:36;;;;;;;12.27;4.10;;;11.70;64.30;;;;;;5020114;28;20475;-81
2021/04/09 09:06:04;;;;;;;6.40;3.83;;;11.80;64.20;;;;;;5017569;28;20451;-82
2021/04/09 09:08:59;;;;;;;5.57;3.60;;;11.80;64.00;;;;;;5018184;28;20429;-82
2021/04/09 09:11:49;;;;;;;6.93;3.73;;;12.00;64.50;;;;;;5003546;28;20436;-82
2021/04/09 09:14:41;;;;;;;7.30;3.77;;;12.00;62.70;;;;;;5018748;28;20501;-82
2021/04/09 09:17:39;;;;;;;8.07;4.00;;;12.00;62.50;;;;;;5013704;28;21129;-87
2021/04/09 09:20:23;;;;;;;7.97;4.43;;;12.10;61.10;;;;;;5022693;28;20944;-90
2021/04/09 09:22:52;;;;;;;9.37;3.67;;;12.20;60.60;;;;;;5025188;28;20445;-89
2021/04/09 09:25:34;;;;;;;7.17;4.00;;;12.20;59.60;;;;;;5035143;28;20448;-86
2021/04/09 09:28:01;;;;;;;8.17;3.17;;;12.50;59.50;;;;;;5051540;28;20631;-86
2021/04/09 09:30:34;;;;;;;9.20;4.20;;;12.60;58.80;;;;;;5051532;28;20732;-87
2021/04/09 09:33:27;;;;;;;7.57;4.10;;;12.50;58.30;;;;;;5019323;28;20462;-85
2021/04/09 09:36:12;;;;;;;7.13;3.40;;;12.60;57.20;;;;;;5035446;28;20472;-88
2021/04/09 09:38:55;;;;;;;5.87;3.27;;;12.70;57.20;;;;;;5024639;28;20439;-89
2021/04/09 09:41:44;;;;;;;10.37;3.80;;;12.90;56.60;;;;;;5024031;28;20439;-88
2021/04/09 09:44:31;;;;;;;6.83;3.77;;;12.90;55.90;;;;;;5018414;28;20495;-89
2021/04/09 09:47:01;;;;;;;6.63;3.63;;;12.90;55.80;;;;;;5018818;28;20469;-87
2021/04/09 09:49:32;;;;;;;7.50;3.53;;;13.00;55.70;;;;;;5025334;28;20435;-88
2021/04/09 09:51:59;;;;;;;8.73;3.50;;;13.20;55.20;;;;;;5028209;28;20499;-89
2021/04/09 09:54:28;;;;;;;4.97;3.27;;;13.40;55.00;;;;;;5037385;28;20472;-88
2021/04/09 09:56:57;;;;;;;6.87;3.50;;;13.30;54.80;;;;;;5028856;28;20798;-89
2021/04/09 09:59:26;;;;;;;5.97;3.27;;;13.50;54.70;;;;;;5035905;28;20461;-88
2021/04/09 10:01:55;;;;;;;8.13;4.63;;;13.50;53.90;;;;;;5032325;28;20421;-89
2021/04/09 10:04:22;;;;;;;7.07;3.47;;;13.70;54.10;;;;;;5021478;28;21949;-90
2021/04/09 10:06:51;;;;;;;5.63;2.50;;;13.80;53.80;;;;;;5022795;28;20451;-88
2021/04/09 10:09:31;;;;;;;7.70;2.90;;;13.90;52.90;;;;;;5024238;28;20884;-88
2021/04/09 10:11:59;;;;;;;7.90;3.70;;;14.10;52.40;;;;;;5026520;28;20441;-89
2021/04/09 10:14:28;;;;;;;5.97;3.30;;;14.10;52.20;;;;;;5022561;28;20468;-88
2021/04/09 10:16:58;;;;;;;10.63;3.90;;;14.20;51.90;;;;;;5015329;28;20463;-87
2021/04/09 10:19:26;;;;;;;7.10;4.10;;;14.20;52.10;;;;;;5005749;28;20431;-88
2021/04/09 10:21:53;;;;;;;5.30;3.07;;;14.30;52.30;;;;;;5020146;28;20433;-90
2021/04/09 10:24:21;;;;;;;7.07;3.60;;;14.40;51.40;;;;;;5022457;28;20939;-88
2021/04/09 10:26:52;;;;;;;6.67;3.67;;;14.50;51.90;;;;;;5022155;28;20527;-89
2021/04/09 10:29:21;;;;;;;5.90;3.10;;;14.60;52.30;;;;;;5034386;28;20444;-82
2021/04/09 10:31:47;;;;;;;4.50;3.00;;;14.70;52.00;;;;;;5009930;28;20483;-81
2021/04/09 10:34:18;;;;;;;14.47;5.13;;;14.90;51.70;;;;;;5021816;28;20469;-82
2021/04/09 10:36:45;;;;;;;7.60;3.97;;;15.00;51.40;;;;;;5026082;28;20431;-82
2021/04/09 10:39:14;;;;;;;6.77;3.50;;;15.10;50.90;;;;;;5021553;28;20505;-82
2021/04/09 10:41:43;;;;;;;6.53;3.37;;;15.20;50.70;;;;;;5020389;28;20462;-82
2021/04/09 10:44:13;;;;;;;6.77;3.13;;;15.00;50.80;;;;;;5009928;28;20507;-86
2021/04/09 10:46:42;;;;;;;8.77;3.27;;;14.80;51.20;;;;;;5021149;28;20434;-87
2021/04/09 10:49:10;;;;;;;6.17;4.00;;;15.10;51.20;;;;;;5021432;28;20542;-86
2021/04/09 10:51:38;;;;;;;9.60;3.53;;;15.10;51.00;;;;;;5021381;28;20483;-88
2021/04/09 10:54:07;;;;;;;6.50;3.43;;;15.10;51.10;;;;;;5021157;28;20574;-88
2021/04/09 10:56:34;;;;;;;6.60;3.60;;;15.00;51.10;;;;;;5020873;28;20421;-85
2021/04/09 10:59:01;;;;;;;8.13;3.50;;;14.90;51.20;;;;;;5020330;28;20533;-86
2021/04/09 11:01:28;;;;;;;5.40;3.03;;;14.90;50.90;;;;;;5021396;28;20535;-88
2021/04/09 11:03:59;;;;;;;6.83;3.70;;;15.00;51.30;;;;;;5022687;28;20515;-87
2021/04/09 11:06:25;;;;;;;7.20;3.70;;;15.00;51.00;;;;;;5022754;28;20876;-88
2021/04/09 11:09:05;;;;;;;9.63;3.53;;;15.00;51.10;;;;;;5012741;28;20524;-88
2021/04/09 11:11:34;;;;;;;6.77;3.37;;;14.90;51.60;;;;;;5021837;28;20475;-87
2021/04/09 11:14:06;;;;;;;6.97;3.03;;;15.10;51.40;;;;;;5012736;28;20890;-87
2021/04/09 11:16:53;;;;;;;6.67;3.00;;;15.00;51.10;;;;;;5023680;28;20418;-88
2021/04/09 11:19:30;;;;;;;8.10;4.80;;;15.00;51.20;;;;;;5021840;28;20429;-88
2021/04/09 11:21:57;;;;;;;5.37;2.87;;;15.20;51.40;;;;;;5022082;28;20489;-89
2021/04/09 11:24:26;;;;;;;8.20;3.93;;;15.40;51.00;;;;;;5021756;28;20445;-88
2021/04/09 11:26:55;;;;;;;8.17;3.40;;;15.40;51.00;;;;;;5020724;28;20832;-89
2021/04/09 11:29:29;;;;;;;5.07;3.00;;;15.50;50.90;;;;;;5021586;28;20459;-88
2021/04/09 11:32:09;;;;;;;8.77;3.80;;;15.50;50.40;;;;;;5006122;28;20437;-89
2021/04/09 11:34:37;;;;;;;5.73;3.70;;;15.40;50.10;;;;;;5022933;28;20490;-88
2021/04/09 11:37:04;;;;;;;6.03;2.93;;;15.20;50.20;;;;;;5023220;28;20472;-88
2021/04/09 11:39:31;;;;;;;5.37;3.13;;;15.30;50.30;;;;;;5014763;28;20447;-89
2021/04/09 11:41:59;;;;;;;8.40;3.33;;;15.30;50.30;;;;;;5020205;28;20968;-89
2021/04/09 11:44:43;;;;;;;5.37;3.23;;;15.40;50.30;;;;;;5023004;28;20465;-88
2021/04/09 11:47:22;;;;;;;7.73;3.17;;;15.30;49.80;;;;;;5033436;28;20429;-87
2021/04/09 11:50:10;;;;;;;6.37;3.50;;;15.50;50.10;;;;;;5030676;28;20500;-87
2021/04/09 11:52:54;;;;;;;6.13;2.83;;;15.50;49.40;;;;;;5011090;28;20974;-87
2021/04/09 11:55:22;;;;;;;5.93;2.90;;;15.60;49.70;;;;;;5005215;28;20477;-86
2021/04/09 11:57:49;;;;;;;7.80;3.33;;;15.80;49.60;;;;;;5022796;28;20447;-88
2021/04/09 12:00:21;;;;;;;5.53;3.23;;;15.70;48.80;;;;;;5032883;28;20434;-88
2021/04/09 12:02:53;;;;;;;10.00;3.33;;;15.70;49.00;;;;;;5020306;28;20450;-87
2021/04/09 12:05:22;;;;;;;8.20;3.80;;;15.90;48.70;;;;;;5021607;28;20438;-85
2021/04/09 12:07:48;;;;;;;5.30;3.10;;;16.00;48.50;;;;;;5003920;28;20427;-83
2021/04/09 12:10:16;;;;;;;6.07;3.20;;;16.10;47.50;;;;;;5014646;28;20947;-83
2021/04/09 12:12:43;;;;;;;5.63;2.70;;;16.10;46.50;;;;;;5020931;28;20530;-82
2021/04/09 12:15:10;;;;;;;3.63;2.33;;;16.20;46.10;;;;;;5015477;28;20714;-83
2021/04/09 12:17:37;;;;;;;5.80;3.40;;;16.30;45.80;;;;;;5020458;28;20430;-82
2021/04/09 12:20:08;;;;;;;6.93;3.47;;;16.40;45.80;;;;;;5023385;28;20429;-83
2021/04/09 12:22:35;;;;;;;7.27;2.57;;;16.40;45.20;;;;;;5019355;28;20876;-83
2021/04/09 12:25:02;;;;;;;6.83;3.10;;;16.60;44.90;;;;;;5027148;28;20475;-81
2021/04/09 12:27:28;;;;;;;6.23;2.83;;;16.70;44.80;;;;;;5030733;28;20421;-87
2021/04/09 12:29:54;;;;;;;6.80;3.10;;;16.80;44.50;;;;;;5030584;28;20475;-82
2021/04/09 12:32:21;;;;;;;5.97;2.60;;;16.80;44.60;;;;;;5021023;28;20534;-82
2021/04/09 12:34:47;;;;;;;6.80;3.00;;;17.00;44.30;;;;;;5018280;28;20491;-82
2021/04/09 12:37:14;;;;;;;8.37;3.07;;;17.10;44.30;;;;;;5019384;28;20469;-81
2021/04/09 12:39:41;;;;;;;6.60;2.60;;;17.00;44.40;;;;;;5020659;28;20811;-81
2021/04/09 12:42:08;;;;;;;3.90;2.17;;;17.00;43.90;;;;;;5019313;28;20843;-82
2021/04/09 12:44:35;;;;;;;5.17;2.70;;;17.10;43.60;;;;;;5019416;28;20475;-83
2021/04/09 12:47:02;;;;;;;4.60;2.40;;;17.20;43.30;;;;;;5019824;28;20456;-87
2021/04/09 12:49:29;;;;;;;7.00;2.60;;;17.20;43.80;;;;;;5018421;28;21024;-87
2021/04/09 12:51:55;;;;;;;5.57;2.30;;;17.20;43.40;;;;;;5022329;28;20487;-87
2021/04/09 12:54:22;;;;;;;4.80;2.30;;;17.10;43.60;;;;;;5032740;28;20450;-87
2021/04/09 12:56:50;;;;;;;4.73;2.30;;;17.10;44.10;;;;;;5027512;28;20425;-86
2021/04/09 12:59:16;;;;;;;4.13;2.10;;;17.20;44.10;;;;;;5018666;28;20536;-87
2021/04/09 13:01:43;;;;;;;7.70;2.80;;;17.20;44.20;;;;;;5020370;28;20429;-86
2021/04/09 13:04:09;;;;;;;5.10;2.10;;;17.30;44.30;;;;;;5020709;28;20469;-87
2021/04/09 13:06:36;;;;;;;5.50;2.80;;;17.50;43.90;;;;;;5018308;28;20422;-87
2021/04/09 13:09:04;;;;;;;4.80;2.53;;;17.50;43.60;;;;;;5019526;28;20481;-88
2021/04/09 13:11:30;;;;;;;5.93;2.83;;;17.80;43.50;;;;;;5018463;28;20436;-87
2021/04/09 13:13:58;;;;;;;6.83;2.90;;;17.70;43.30;;;;;;5023933;28;20746;-87
2021/04/09 13:16:28;;;;;;;6.13;2.97;;;17.70;43.30;;;;;;5024166;28;20513;-88
2021/04/09 13:18:57;;;;;;;4.20;2.53;;;17.70;43.60;;;;;;5022289;28;20438;-89
2021/04/09 13:21:24;;;;;;;6.93;2.93;;;17.80;43.70;;;;;;5022406;28;20424;-87
2021/04/09 13:23:52;;;;;;;5.23;2.80;;;18.00;43.50;;;;;;5024527;28;20926;-88
2021/04/09 13:26:19;;;;;;;5.63;2.80;;;18.00;43.30;;;;;;5023631;28;20513;-88
2021/04/09 13:28:46;;;;;;;9.00;3.50;;;17.80;43.40;;;;;;5027386;28;20439;-88
2021/04/09 13:31:13;;;;;;;4.83;2.40;;;17.90;43.80;;;;;;5024685;28;20441;-88
2021/04/09 13:33:40;;;;;;;6.20;3.23;;;18.00;43.70;;;;;;5017434;28;20609;-89
2021/04/09 13:36:08;;;;;;;4.70;2.40;;;18.10;43.40;;;;;;5018030;28;20931;-87
2021/04/09 13:38:35;;;;;;;6.00;2.50;;;18.10;42.90;;;;;;5019992;28;20429;-88
2021/04/09 13:41:02;;;;;;;5.80;2.60;;;18.10;42.70;;;;;;5017543;28;20451;-86
2021/04/09 13:43:29;;;;;;;6.90;2.60;;;18.20;42.70;;;;;;5017859;28;20493;-88
2021/04/09 13:45:55;;;;;;;10.73;3.00;;;18.30;42.80;;;;;;5017575;28;20609;-88
2021/04/09 13:48:23;;;;;;;6.13;2.50;;;18.20;42.90;;;;;;5018071;28;20577;-88
2021/04/09 13:50:51;;;;;;;7.87;2.67;;;18.50;43.20;;;;;;5017154;28;20432;-86
2021/04/09 13:53:17;;;;;;;3.60;2.00;;;18.40;41.90;;;;;;5017489;28;20563;-87
2021/04/09 13:55:44;;;;;;;4.90;2.60;;;18.30;41.60;;;;;;5019084;28;20563;-86
2021/04/09 13:58:11;;;;;;;5.60;2.13;;;18.30;42.40;;;;;;4999851;28;20465;-86
2021/04/09 14:00:37;;;;;;;6.97;2.70;;;18.30;40.70;;;;;;5006926;28;20563;-86
2021/04/09 14:03:05;;;;;;;6.93;2.80;;;18.10;40.30;;;;;;5018723;28;20430;-87
2021/04/09 14:05:32;;;;;;;4.53;2.13;;;18.10;40.00;;;;;;5017984;28;21124;-87
2021/04/09 14:07:59;;;;;;;5.20;2.30;;;18.10;39.60;;;;;;5018543;28;20538;-87
2021/04/09 14:10:26;;;;;;;7.93;2.40;;;18.30;39.40;;;;;;5018716;28;20443;-86
2021/04/09 14:12:53;;;;;;;4.70;2.57;;;18.40;39.10;;;;;;5014148;28;20494;-86
2021/04/09 14:15:20;;;;;;;5.30;3.03;;;18.50;39.40;;;;;;4998925;28;20499;-87
2021/04/09 14:17:47;;;;;;;4.60;2.50;;;18.50;39.10;;;;;;4999419;28;20570;-87
2021/04/09 14:20:16;;;;;;;4.70;2.23;;;18.40;39.20;;;;;;4999929;28;20415;-88
2021/04/09 14:22:43;;;;;;;5.90;2.50;;;18.50;39.50;;;;;;5008127;28;20557;-87
2021/04/09 14:25:13;;;;;;;5.50;2.33;;;18.70;39.10;;;;;;5015107;28;20484;-87
2021/04/09 14:27:39;;;;;;;4.57;2.27;;;18.80;39.10;;;;;;5025238;28;20930;-87